Koun Maru — JK5556 — position and weather

sailwx.info

Track history (hours):
 
Tides and Currents Weather Stations Pressure Air Temp Water Temp Dewpoint Dewpoint Depression Visibility Wind Speed Wind Dir Waves Ship Positions

Koun Maru

Last reported at 2016-Jun-29 22:27 UTC. Time now 2016-Jun-30 01:27 UTC.
Position N 34°33' E 135°26'.

Length 40 m.

Type: Tanker. MMSI: 431401871.

Date/timePositionNaut miles runAvg speedWind from/ knotsBaromVisibWave heightAir tempDewpointWater temp
2016-Jun-29 22:27N 34°33' E 135°26'4 0.3
2016-Jun-29 06:13N 34°33' E 135°20'3 0.1
2016-Jun-28 07:08N 34°34' E 135°17'611.1
2016-Jun-28 06:33N 34°35' E 135°09'4 0.2
2016-Jun-27 08:32N 34°37' E 135°06'9 8.8
2016-Jun-27 07:33N 34°42' E 135°15'0 0.3
2016-Jun-27 06:19N 34°42' E 135°15'0 0.0
2016-Jun-27 05:31N 34°42' E 135°15'0 0.0
2016-Jun-27 04:31N 34°42' E 135°15'0 0.0
2016-Jun-27 03:23N 34°42' E 135°15'3 3.5
2016-Jun-27 02:33N 34°42' E 135°18'  
2016-Jun-23 00:21N 34°38' E 135°26'1 0.0
2016-Jun-22 00:14N 34°38' E 135°27'10 1.1
2016-Jun-21 15:31N 34°34' E 135°16'1010.3
2016-Jun-21 14:33N 34°35' E 135°04'8 0.3
2016-Jun-20 09:33N 34°36' E 135°13'7 2.5
2016-Jun-20 06:32N 34°31' E 135°20'  
Track history (hours):
 
Tides and Currents Weather Stations Pressure Air Temp Water Temp Dewpoint Dewpoint Depression Visibility Wind Speed Wind Dir Waves Ship Positions

Koun Maru

Last reported at 2016-Jun-29 22:27 UTC. Time now 2016-Jun-30 01:27 UTC.
Position N 34°33' E 135°26'.

Length 40 m.

Type: Tanker. MMSI: 431401871.

Date/timePositionNaut miles runAvg speedWind from/ knotsBaromVisibWave heightAir tempDewpointWater temp
2016-Jun-29 22:27N 34°33' E 135°26'4 0.3
2016-Jun-29 06:13N 34°33' E 135°20'3 0.1
2016-Jun-28 07:08N 34°34' E 135°17'611.1
2016-Jun-28 06:33N 34°35' E 135°09'4 0.2
2016-Jun-27 08:32N 34°37' E 135°06'9 8.8
2016-Jun-27 07:33N 34°42' E 135°15'0 0.3
2016-Jun-27 06:19N 34°42' E 135°15'0 0.0
2016-Jun-27 05:31N 34°42' E 135°15'0 0.0
2016-Jun-27 04:31N 34°42' E 135°15'0 0.0
2016-Jun-27 03:23N 34°42' E 135°15'3 3.5
2016-Jun-27 02:33N 34°42' E 135°18'  
2016-Jun-23 00:21N 34°38' E 135°26'1 0.0
2016-Jun-22 00:14N 34°38' E 135°27'10 1.1
2016-Jun-21 15:31N 34°34' E 135°16'1010.3
2016-Jun-21 14:33N 34°35' E 135°04'8 0.3
2016-Jun-20 09:33N 34°36' E 135°13'7 2.5
2016-Jun-20 06:32N 34°31' E 135°20'  

Dump ship's entire track history